sensor_id;sensor_type;location;lat;lon;timestamp;P1;durP1;ratioP1;P2;durP2;ratioP2
50495;SDS011;38806;51.554;5.704;2023-03-18T00:00:59;14.52;;;6.88;;
50495;SDS011;38806;51.554;5.704;2023-03-18T00:03:03;12.23;;;7.30;;
50495;SDS011;38806;51.554;5.704;2023-03-18T00:05:04;13.75;;;6.85;;
50495;SDS011;38806;51.554;5.704;2023-03-18T00:07:04;11.80;;;6.10;;
50495;SDS011;38806;51.554;5.704;2023-03-18T00:09:05;10.57;;;5.93;;
50495;SDS011;38806;51.554;5.704;2023-03-18T00:11:06;14.10;;;6.88;;
50495;SDS011;38806;51.554;5.704;2023-03-18T00:13:06;13.90;;;6.30;;
50495;SDS011;38806;51.554;5.704;2023-03-18T00:15:07;12.15;;;7.50;;
50495;SDS011;38806;51.554;5.704;2023-03-18T00:17:08;13.55;;;7.18;;
50495;SDS011;38806;51.554;5.704;2023-03-18T00:19:08;13.27;;;7.25;;
50495;SDS011;38806;51.554;5.704;2023-03-18T00:21:09;15.80;;;8.23;;
50495;SDS011;38806;51.554;5.704;2023-03-18T00:23:10;17.13;;;7.68;;
50495;SDS011;38806;51.554;5.704;2023-03-18T00:25:11;14.98;;;7.40;;
50495;SDS011;38806;51.554;5.704;2023-03-18T00:27:11;14.45;;;7.88;;
50495;SDS011;38806;51.554;5.704;2023-03-18T00:29:12;14.07;;;7.25;;
50495;SDS011;38806;51.554;5.704;2023-03-18T00:31:12;11.77;;;7.45;;
50495;SDS011;38806;51.554;5.704;2023-03-18T00:33:12;13.48;;;6.78;;
50495;SDS011;38806;51.554;5.704;2023-03-18T00:35:13;15.73;;;7.07;;
50495;SDS011;38806;51.554;5.704;2023-03-18T00:37:13;18.77;;;8.27;;
50495;SDS011;38806;51.554;5.704;2023-03-18T00:39:18;16.73;;;9.27;;
50495;SDS011;38806;51.554;5.704;2023-03-18T00:41:25;12.63;;;8.30;;
50495;SDS011;38806;51.554;5.704;2023-03-18T00:43:26;13.23;;;8.23;;
50495;SDS011;38806;51.554;5.704;2023-03-18T00:45:28;12.05;;;7.60;;
50495;SDS011;38806;51.554;5.704;2023-03-18T00:47:29;14.73;;;8.63;;
50495;SDS011;38806;51.554;5.704;2023-03-18T00:49:29;16.90;;;9.10;;
50495;SDS011;38806;51.554;5.704;2023-03-18T00:51:30;16.20;;;7.63;;
50495;SDS011;38806;51.554;5.704;2023-03-18T00:53:31;18.83;;;8.63;;
50495;SDS011;38806;51.554;5.704;2023-03-18T00:55:31;13.70;;;8.70;;
50495;SDS011;38806;51.554;5.704;2023-03-18T00:57:32;13.82;;;8.38;;
50495;SDS011;38806;51.554;5.704;2023-03-18T00:59:32;14.07;;;8.88;;
50495;SDS011;38806;51.554;5.704;2023-03-18T01:01:33;17.05;;;9.00;;
50495;SDS011;38806;51.554;5.704;2023-03-18T01:03:34;16.10;;;8.60;;
50495;SDS011;38806;51.554;5.704;2023-03-18T01:05:34;20.67;;;9.27;;
50495;SDS011;38806;51.554;5.704;2023-03-18T01:07:34;16.60;;;10.85;;
50495;SDS011;38806;51.554;5.704;2023-03-18T01:09:35;15.65;;;8.30;;
50495;SDS011;38806;51.554;5.704;2023-03-18T01:11:36;12.23;;;8.23;;
50495;SDS011;38806;51.554;5.704;2023-03-18T01:13:36;13.55;;;9.07;;
50495;SDS011;38806;51.554;5.704;2023-03-18T01:15:37;16.52;;;9.75;;
50495;SDS011;38806;51.554;5.704;2023-03-18T01:17:37;19.83;;;9.57;;
50495;SDS011;38806;51.554;5.704;2023-03-18T01:19:37;18.80;;;10.43;;
50495;SDS011;38806;51.554;5.704;2023-03-18T01:21:37;18.95;;;11.43;;
50495;SDS011;38806;51.554;5.704;2023-03-18T01:23:38;18.70;;;11.77;;
50495;SDS011;38806;51.554;5.704;2023-03-18T01:25:38;19.65;;;11.45;;
50495;SDS011;38806;51.554;5.704;2023-03-18T01:27:38;23.83;;;12.80;;
50495;SDS011;38806;51.554;5.704;2023-03-18T01:29:39;20.05;;;11.10;;
50495;SDS011;38806;51.554;5.704;2023-03-18T01:31:40;21.65;;;12.68;;
50495;SDS011;38806;51.554;5.704;2023-03-18T01:33:40;18.00;;;12.27;;
50495;SDS011;38806;51.554;5.704;2023-03-18T01:35:41;20.23;;;12.45;;
50495;SDS011;38806;51.554;5.704;2023-03-18T01:37:41;22.40;;;14.40;;
50495;SDS011;38806;51.554;5.704;2023-03-18T01:39:42;21.83;;;13.77;;
50495;SDS011;38806;51.554;5.704;2023-03-18T01:41:43;24.63;;;13.85;;
50495;SDS011;38806;51.554;5.704;2023-03-18T01:43:44;24.38;;;15.82;;
50495;SDS011;38806;51.554;5.704;2023-03-18T01:45:47;26.63;;;15.45;;
50495;SDS011;38806;51.554;5.704;2023-03-18T01:47:47;20.00;;;13.75;;
50495;SDS011;38806;51.554;5.704;2023-03-18T01:49:49;22.77;;;15.07;;
50495;SDS011;38806;51.554;5.704;2023-03-18T01:51:52;38.15;;;17.38;;
50495;SDS011;38806;51.554;5.704;2023-03-18T01:53:54;24.25;;;15.20;;
50495;SDS011;38806;51.554;5.704;2023-03-18T01:55:55;23.75;;;15.55;;
50495;SDS011;38806;51.554;5.704;2023-03-18T01:57:56;23.98;;;17.23;;
50495;SDS011;38806;51.554;5.704;2023-03-18T01:59:57;28.95;;;15.90;;
50495;SDS011;38806;51.554;5.704;2023-03-18T02:02:02;27.10;;;15.82;;
50495;SDS011;38806;51.554;5.704;2023-03-18T02:04:03;28.10;;;15.55;;
50495;SDS011;38806;51.554;5.704;2023-03-18T02:06:04;24.17;;;15.23;;
50495;SDS011;38806;51.554;5.704;2023-03-18T02:08:04;24.63;;;15.45;;
50495;SDS011;38806;51.554;5.704;2023-03-18T02:10:06;25.70;;;15.80;;
50495;SDS011;38806;51.554;5.704;2023-03-18T02:12:07;25.02;;;15.90;;
50495;SDS011;38806;51.554;5.704;2023-03-18T02:14:09;24.73;;;15.13;;
50495;SDS011;38806;51.554;5.704;2023-03-18T02:16:21;25.80;;;17.27;;
50495;SDS011;38806;51.554;5.704;2023-03-18T02:18:29;23.25;;;14.32;;
50495;SDS011;38806;51.554;5.704;2023-03-18T02:22:38;22.90;;;16.15;;
50495;SDS011;38806;51.554;5.704;2023-03-18T02:29:21;28.92;;;17.58;;
50495;SDS011;38806;51.554;5.704;2023-03-18T02:31:22;23.05;;;15.63;;
50495;SDS011;38806;51.554;5.704;2023-03-18T02:33:23;26.08;;;17.00;;
50495;SDS011;38806;51.554;5.704;2023-03-18T02:35:25;31.00;;;15.35;;
50495;SDS011;38806;51.554;5.704;2023-03-18T02:37:26;25.08;;;16.88;;
50495;SDS011;38806;51.554;5.704;2023-03-18T02:39:27;25.30;;;17.73;;
50495;SDS011;38806;51.554;5.704;2023-03-18T02:41:31;25.60;;;17.33;;
50495;SDS011;38806;51.554;5.704;2023-03-18T02:43:32;24.75;;;17.85;;
50495;SDS011;38806;51.554;5.704;2023-03-18T02:45:40;27.58;;;16.83;;
50495;SDS011;38806;51.554;5.704;2023-03-18T02:47:44;26.83;;;19.00;;
50495;SDS011;38806;51.554;5.704;2023-03-18T02:49:46;32.55;;;16.70;;
50495;SDS011;38806;51.554;5.704;2023-03-18T02:51:46;28.55;;;18.15;;
50495;SDS011;38806;51.554;5.704;2023-03-18T02:53:48;26.90;;;18.45;;
50495;SDS011;38806;51.554;5.704;2023-03-18T02:55:49;34.42;;;18.83;;
50495;SDS011;38806;51.554;5.704;2023-03-18T02:57:49;28.77;;;18.23;;
50495;SDS011;38806;51.554;5.704;2023-03-18T02:59:50;30.05;;;20.05;;
50495;SDS011;38806;51.554;5.704;2023-03-18T03:01:51;29.02;;;17.45;;
50495;SDS011;38806;51.554;5.704;2023-03-18T03:03:52;36.03;;;20.70;;
50495;SDS011;38806;51.554;5.704;2023-03-18T03:05:52;27.52;;;18.63;;
50495;SDS011;38806;51.554;5.704;2023-03-18T03:07:52;31.92;;;18.63;;
50495;SDS011;38806;51.554;5.704;2023-03-18T03:09:53;29.13;;;20.27;;
50495;SDS011;38806;51.554;5.704;2023-03-18T03:11:53;35.17;;;20.33;;
50495;SDS011;38806;51.554;5.704;2023-03-18T03:13:53;32.35;;;18.98;;
50495;SDS011;38806;51.554;5.704;2023-03-18T03:15:54;31.00;;;20.13;;
50495;SDS011;38806;51.554;5.704;2023-03-18T03:17:54;34.50;;;21.20;;
50495;SDS011;38806;51.554;5.704;2023-03-18T03:19:55;32.63;;;21.17;;
50495;SDS011;38806;51.554;5.704;2023-03-18T03:21:55;39.85;;;21.08;;
50495;SDS011;38806;51.554;5.704;2023-03-18T03:23:56;32.65;;;21.38;;
50495;SDS011;38806;51.554;5.704;2023-03-18T03:25:56;34.08;;;22.52;;
50495;SDS011;38806;51.554;5.704;2023-03-18T03:27:57;30.73;;;21.42;;
50495;SDS011;38806;51.554;5.704;2023-03-18T03:29:57;38.63;;;23.55;;
50495;SDS011;38806;51.554;5.704;2023-03-18T03:31:58;35.42;;;20.88;;
50495;SDS011;38806;51.554;5.704;2023-03-18T03:33:58;36.42;;;22.83;;
50495;SDS011;38806;51.554;5.704;2023-03-18T03:35:58;34.55;;;22.10;;
50495;SDS011;38806;51.554;5.704;2023-03-18T03:37:58;43.17;;;22.23;;
50495;SDS011;38806;51.554;5.704;2023-03-18T03:39:58;39.30;;;23.60;;
50495;SDS011;38806;51.554;5.704;2023-03-18T03:41:59;36.47;;;22.02;;
50495;SDS011;38806;51.554;5.704;2023-03-18T03:43:59;38.83;;;22.90;;
50495;SDS011;38806;51.554;5.704;2023-03-18T03:46:00;34.90;;;23.17;;
50495;SDS011;38806;51.554;5.704;2023-03-18T03:48:00;31.98;;;20.92;;
50495;SDS011;38806;51.554;5.704;2023-03-18T03:50:01;40.15;;;23.30;;
50495;SDS011;38806;51.554;5.704;2023-03-18T03:52:01;33.17;;;22.42;;
50495;SDS011;38806;51.554;5.704;2023-03-18T03:54:01;38.00;;;23.70;;
50495;SDS011;38806;51.554;5.704;2023-03-18T03:56:02;42.63;;;24.67;;
50495;SDS011;38806;51.554;5.704;2023-03-18T03:58:03;39.08;;;21.50;;
50495;SDS011;38806;51.554;5.704;2023-03-18T04:00:04;38.28;;;22.80;;
50495;SDS011;38806;51.554;5.704;2023-03-18T04:02:04;37.10;;;22.27;;
50495;SDS011;38806;51.554;5.704;2023-03-18T04:04:04;35.17;;;22.75;;
50495;SDS011;38806;51.554;5.704;2023-03-18T04:06:05;38.55;;;23.20;;
50495;SDS011;38806;51.554;5.704;2023-03-18T04:08:06;41.60;;;22.83;;
50495;SDS011;38806;51.554;5.704;2023-03-18T04:10:07;45.72;;;26.73;;
50495;SDS011;38806;51.554;5.704;2023-03-18T04:12:08;33.25;;;21.30;;
50495;SDS011;38806;51.554;5.704;2023-03-18T04:14:08;41.45;;;24.33;;
50495;SDS011;38806;51.554;5.704;2023-03-18T04:16:09;34.05;;;22.35;;
50495;SDS011;38806;51.554;5.704;2023-03-18T04:18:09;38.17;;;22.38;;
50495;SDS011;38806;51.554;5.704;2023-03-18T04:20:09;42.33;;;24.33;;
50495;SDS011;38806;51.554;5.704;2023-03-18T04:22:10;41.53;;;23.88;;
50495;SDS011;38806;51.554;5.704;2023-03-18T04:24:10;31.58;;;22.08;;
50495;SDS011;38806;51.554;5.704;2023-03-18T04:26:10;34.97;;;23.17;;
50495;SDS011;38806;51.554;5.704;2023-03-18T04:28:12;39.00;;;22.20;;
50495;SDS011;38806;51.554;5.704;2023-03-18T04:30:13;40.58;;;23.65;;
50495;SDS011;38806;51.554;5.704;2023-03-18T04:32:13;32.97;;;22.73;;
50495;SDS011;38806;51.554;5.704;2023-03-18T04:34:13;38.42;;;23.25;;
50495;SDS011;38806;51.554;5.704;2023-03-18T04:36:14;32.33;;;20.63;;
50495;SDS011;38806;51.554;5.704;2023-03-18T04:38:14;41.70;;;24.80;;
50495;SDS011;38806;51.554;5.704;2023-03-18T04:40:14;35.15;;;23.48;;
50495;SDS011;38806;51.554;5.704;2023-03-18T04:42:15;32.97;;;22.15;;
50495;SDS011;38806;51.554;5.704;2023-03-18T04:44:16;37.10;;;23.13;;
50495;SDS011;38806;51.554;5.704;2023-03-18T04:46:18;35.50;;;23.48;;
50495;SDS011;38806;51.554;5.704;2023-03-18T04:48:18;36.80;;;23.08;;
50495;SDS011;38806;51.554;5.704;2023-03-18T04:50:18;36.38;;;24.25;;
50495;SDS011;38806;51.554;5.704;2023-03-18T04:52:19;36.53;;;23.67;;
50495;SDS011;38806;51.554;5.704;2023-03-18T04:54:19;38.20;;;23.42;;
50495;SDS011;38806;51.554;5.704;2023-03-18T04:56:20;36.67;;;24.23;;
50495;SDS011;38806;51.554;5.704;2023-03-18T04:58:20;39.42;;;24.20;;
50495;SDS011;38806;51.554;5.704;2023-03-18T05:00:20;46.25;;;26.17;;
50495;SDS011;38806;51.554;5.704;2023-03-18T05:02:21;38.08;;;22.95;;
50495;SDS011;38806;51.554;5.704;2023-03-18T05:04:21;39.50;;;25.40;;
50495;SDS011;38806;51.554;5.704;2023-03-18T05:06:24;40.92;;;23.60;;
50495;SDS011;38806;51.554;5.704;2023-03-18T05:08:25;40.33;;;23.65;;
50495;SDS011;38806;51.554;5.704;2023-03-18T05:10:26;41.00;;;22.38;;
50495;SDS011;38806;51.554;5.704;2023-03-18T05:12:26;37.55;;;24.92;;
50495;SDS011;38806;51.554;5.704;2023-03-18T05:14:26;38.78;;;24.05;;
50495;SDS011;38806;51.554;5.704;2023-03-18T05:16:27;41.75;;;24.60;;
50495;SDS011;38806;51.554;5.704;2023-03-18T05:18:29;37.80;;;23.60;;
50495;SDS011;38806;51.554;5.704;2023-03-18T05:20:29;38.15;;;23.25;;
50495;SDS011;38806;51.554;5.704;2023-03-18T05:22:29;38.63;;;24.77;;
50495;SDS011;38806;51.554;5.704;2023-03-18T05:24:29;34.30;;;24.08;;
50495;SDS011;38806;51.554;5.704;2023-03-18T05:26:29;37.03;;;23.65;;
50495;SDS011;38806;51.554;5.704;2023-03-18T05:28:30;43.75;;;25.90;;
50495;SDS011;38806;51.554;5.704;2023-03-18T05:30:30;33.53;;;23.45;;
50495;SDS011;38806;51.554;5.704;2023-03-18T05:32:30;40.70;;;25.80;;
50495;SDS011;38806;51.554;5.704;2023-03-18T05:34:34;46.08;;;26.77;;
50495;SDS011;38806;51.554;5.704;2023-03-18T05:36:36;43.75;;;28.17;;
50495;SDS011;38806;51.554;5.704;2023-03-18T05:38:37;40.67;;;25.25;;
50495;SDS011;38806;51.554;5.704;2023-03-18T05:40:37;40.60;;;23.02;;
50495;SDS011;38806;51.554;5.704;2023-03-18T05:42:38;39.17;;;22.95;;
50495;SDS011;38806;51.554;5.704;2023-03-18T05:44:39;37.70;;;22.45;;
50495;SDS011;38806;51.554;5.704;2023-03-18T05:46:40;39.95;;;24.98;;
50495;SDS011;38806;51.554;5.704;2023-03-18T05:48:40;42.67;;;21.67;;
50495;SDS011;38806;51.554;5.704;2023-03-18T05:50:41;39.38;;;23.67;;
50495;SDS011;38806;51.554;5.704;2023-03-18T05:52:42;36.22;;;22.75;;
50495;SDS011;38806;51.554;5.704;2023-03-18T05:54:43;40.88;;;22.70;;
50495;SDS011;38806;51.554;5.704;2023-03-18T05:56:43;37.47;;;25.67;;
50495;SDS011;38806;51.554;5.704;2023-03-18T05:58:46;33.90;;;22.42;;
50495;SDS011;38806;51.554;5.704;2023-03-18T06:00:47;45.38;;;23.48;;
50495;SDS011;38806;51.554;5.704;2023-03-18T06:02:47;34.72;;;22.90;;
50495;SDS011;38806;51.554;5.704;2023-03-18T06:04:47;33.38;;;20.63;;
50495;SDS011;38806;51.554;5.704;2023-03-18T06:06:47;42.55;;;22.30;;
50495;SDS011;38806;51.554;5.704;2023-03-18T06:08:48;31.67;;;21.08;;
50495;SDS011;38806;51.554;5.704;2023-03-18T06:10:48;36.50;;;23.40;;
50495;SDS011;38806;51.554;5.704;2023-03-18T06:12:49;32.97;;;19.98;;
50495;SDS011;38806;51.554;5.704;2023-03-18T06:14:49;33.75;;;20.58;;
50495;SDS011;38806;51.554;5.704;2023-03-18T06:16:49;31.48;;;18.73;;
50495;SDS011;38806;51.554;5.704;2023-03-18T06:18:50;30.20;;;20.35;;
50495;SDS011;38806;51.554;5.704;2023-03-18T06:20:50;32.25;;;20.67;;
50495;SDS011;38806;51.554;5.704;2023-03-18T06:22:50;34.75;;;19.85;;
50495;SDS011;38806;51.554;5.704;2023-03-18T06:24:51;32.47;;;18.70;;
50495;SDS011;38806;51.554;5.704;2023-03-18T06:26:51;31.63;;;19.25;;
50495;SDS011;38806;51.554;5.704;2023-03-18T06:28:51;37.78;;;21.63;;
50495;SDS011;38806;51.554;5.704;2023-03-18T06:30:55;32.13;;;21.17;;
50495;SDS011;38806;51.554;5.704;2023-03-18T06:32:59;31.98;;;19.40;;
50495;SDS011;38806;51.554;5.704;2023-03-18T06:34:59;42.28;;;22.67;;
50495;SDS011;38806;51.554;5.704;2023-03-18T06:36:59;36.33;;;21.25;;
50495;SDS011;38806;51.554;5.704;2023-03-18T06:39:00;33.60;;;19.25;;
50495;SDS011;38806;51.554;5.704;2023-03-18T06:41:00;34.10;;;18.83;;
50495;SDS011;38806;51.554;5.704;2023-03-18T06:43:00;31.38;;;18.80;;
50495;SDS011;38806;51.554;5.704;2023-03-18T06:45:01;31.00;;;19.63;;
50495;SDS011;38806;51.554;5.704;2023-03-18T06:47:01;33.55;;;19.58;;
50495;SDS011;38806;51.554;5.704;2023-03-18T06:49:01;30.40;;;20.35;;
50495;SDS011;38806;51.554;5.704;2023-03-18T06:51:02;31.27;;;18.60;;
50495;SDS011;38806;51.554;5.704;2023-03-18T06:53:02;30.15;;;19.67;;
50495;SDS011;38806;51.554;5.704;2023-03-18T06:55:04;33.00;;;20.42;;
50495;SDS011;38806;51.554;5.704;2023-03-18T06:57:05;37.33;;;21.23;;
50495;SDS011;38806;51.554;5.704;2023-03-18T06:59:07;32.35;;;20.30;;
50495;SDS011;38806;51.554;5.704;2023-03-18T07:01:08;32.88;;;22.45;;
50495;SDS011;38806;51.554;5.704;2023-03-18T07:03:11;38.50;;;23.00;;
50495;SDS011;38806;51.554;5.704;2023-03-18T07:05:14;38.85;;;22.55;;
50495;SDS011;38806;51.554;5.704;2023-03-18T07:07:16;33.75;;;22.27;;
50495;SDS011;38806;51.554;5.704;2023-03-18T07:09:16;40.90;;;23.85;;
50495;SDS011;38806;51.554;5.704;2023-03-18T07:11:18;40.33;;;24.52;;
50495;SDS011;38806;51.554;5.704;2023-03-18T07:13:18;38.50;;;22.92;;
50495;SDS011;38806;51.554;5.704;2023-03-18T07:15:19;38.70;;;24.30;;
50495;SDS011;38806;51.554;5.704;2023-03-18T07:17:22;40.78;;;26.30;;
50495;SDS011;38806;51.554;5.704;2023-03-18T07:19:23;36.13;;;22.50;;
50495;SDS011;38806;51.554;5.704;2023-03-18T07:21:24;40.88;;;24.17;;
50495;SDS011;38806;51.554;5.704;2023-03-18T07:23:24;38.67;;;22.50;;
50495;SDS011;38806;51.554;5.704;2023-03-18T07:25:25;33.53;;;21.75;;
50495;SDS011;38806;51.554;5.704;2023-03-18T07:27:25;39.15;;;22.83;;
50495;SDS011;38806;51.554;5.704;2023-03-18T07:29:25;36.75;;;23.67;;
50495;SDS011;38806;51.554;5.704;2023-03-18T07:31:26;31.90;;;20.98;;
50495;SDS011;38806;51.554;5.704;2023-03-18T07:33:26;36.67;;;24.27;;
50495;SDS011;38806;51.554;5.704;2023-03-18T07:35:27;33.33;;;21.45;;
50495;SDS011;38806;51.554;5.704;2023-03-18T07:37:27;35.83;;;21.20;;
50495;SDS011;38806;51.554;5.704;2023-03-18T07:39:28;31.83;;;19.50;;
50495;SDS011;38806;51.554;5.704;2023-03-18T07:41:28;29.40;;;19.27;;
50495;SDS011;38806;51.554;5.704;2023-03-18T07:43:28;30.25;;;20.15;;
50495;SDS011;38806;51.554;5.704;2023-03-18T07:45:28;27.83;;;18.58;;
50495;SDS011;38806;51.554;5.704;2023-03-18T07:47:28;28.30;;;18.35;;
50495;SDS011;38806;51.554;5.704;2023-03-18T07:49:29;30.27;;;19.38;;
50495;SDS011;38806;51.554;5.704;2023-03-18T07:51:30;32.78;;;18.95;;
50495;SDS011;38806;51.554;5.704;2023-03-18T07:53:31;29.60;;;20.92;;
50495;SDS011;38806;51.554;5.704;2023-03-18T07:55:32;35.00;;;19.02;;
50495;SDS011;38806;51.554;5.704;2023-03-18T07:57:32;27.88;;;17.40;;
50495;SDS011;38806;51.554;5.704;2023-03-18T07:59:33;29.88;;;18.70;;
50495;SDS011;38806;51.554;5.704;2023-03-18T08:01:33;29.05;;;20.55;;
50495;SDS011;38806;51.554;5.704;2023-03-18T08:03:34;25.58;;;17.02;;
50495;SDS011;38806;51.554;5.704;2023-03-18T08:05:34;27.25;;;19.05;;
50495;SDS011;38806;51.554;5.704;2023-03-18T08:07:34;24.88;;;16.67;;
50495;SDS011;38806;51.554;5.704;2023-03-18T08:09:35;25.77;;;17.05;;
50495;SDS011;38806;51.554;5.704;2023-03-18T08:11:35;24.98;;;16.27;;
50495;SDS011;38806;51.554;5.704;2023-03-18T08:13:36;23.23;;;14.93;;
50495;SDS011;38806;51.554;5.704;2023-03-18T08:15:37;24.48;;;15.00;;
50495;SDS011;38806;51.554;5.704;2023-03-18T08:17:37;23.60;;;14.48;;
50495;SDS011;38806;51.554;5.704;2023-03-18T08:19:38;26.23;;;16.98;;
50495;SDS011;38806;51.554;5.704;2023-03-18T08:21:38;20.60;;;12.93;;
50495;SDS011;38806;51.554;5.704;2023-03-18T08:23:38;23.90;;;15.75;;
50495;SDS011;38806;51.554;5.704;2023-03-18T08:25:39;23.08;;;16.13;;
50495;SDS011;38806;51.554;5.704;2023-03-18T08:27:39;23.88;;;16.42;;
50495;SDS011;38806;51.554;5.704;2023-03-18T08:29:39;21.23;;;14.88;;
50495;SDS011;38806;51.554;5.704;2023-03-18T08:31:40;19.13;;;12.27;;
50495;SDS011;38806;51.554;5.704;2023-03-18T08:33:40;21.05;;;13.18;;
50495;SDS011;38806;51.554;5.704;2023-03-18T08:35:40;19.90;;;12.13;;
50495;SDS011;38806;51.554;5.704;2023-03-18T08:37:41;19.83;;;12.13;;
50495;SDS011;38806;51.554;5.704;2023-03-18T08:39:41;17.52;;;11.80;;
50495;SDS011;38806;51.554;5.704;2023-03-18T08:41:43;15.93;;;9.55;;
50495;SDS011;38806;51.554;5.704;2023-03-18T08:43:43;14.60;;;9.37;;
50495;SDS011;38806;51.554;5.704;2023-03-18T08:45:44;14.27;;;10.15;;
50495;SDS011;38806;51.554;5.704;2023-03-18T08:47:44;12.88;;;9.45;;
50495;SDS011;38806;51.554;5.704;2023-03-18T08:49:45;12.43;;;8.87;;
50495;SDS011;38806;51.554;5.704;2023-03-18T08:51:45;12.37;;;8.33;;
50495;SDS011;38806;51.554;5.704;2023-03-18T08:53:45;13.00;;;9.05;;
50495;SDS011;38806;51.554;5.704;2023-03-18T08:55:46;12.98;;;7.93;;
50495;SDS011;38806;51.554;5.704;2023-03-18T08:57:46;11.02;;;6.95;;
50495;SDS011;38806;51.554;5.704;2023-03-18T08:59:46;11.38;;;7.38;;
50495;SDS011;38806;51.554;5.704;2023-03-18T09:01:47;10.10;;;7.53;;
50495;SDS011;38806;51.554;5.704;2023-03-18T09:03:48;15.50;;;9.73;;
50495;SDS011;38806;51.554;5.704;2023-03-18T09:05:49;12.25;;;7.95;;
50495;SDS011;38806;51.554;5.704;2023-03-18T09:07:49;12.50;;;8.85;;
50495;SDS011;38806;51.554;5.704;2023-03-18T09:09:51;10.02;;;7.75;;
50495;SDS011;38806;51.554;5.704;2023-03-18T09:11:53;11.68;;;8.45;;
50495;SDS011;38806;51.554;5.704;2023-03-18T09:13:53;15.00;;;7.68;;
50495;SDS011;38806;51.554;5.704;2023-03-18T09:15:53;14.33;;;8.60;;
50495;SDS011;38806;51.554;5.704;2023-03-18T09:17:54;11.57;;;7.83;;
50495;SDS011;38806;51.554;5.704;2023-03-18T09:19:54;9.43;;;7.18;;
50495;SDS011;38806;51.554;5.704;2023-03-18T09:21:55;11.25;;;7.75;;
50495;SDS011;38806;51.554;5.704;2023-03-18T09:23:56;11.80;;;7.32;;
50495;SDS011;38806;51.554;5.704;2023-03-18T09:25:57;11.27;;;8.15;;
50495;SDS011;38806;51.554;5.704;2023-03-18T09:27:58;11.35;;;7.05;;
50495;SDS011;38806;51.554;5.704;2023-03-18T09:29:59;12.13;;;7.75;;
50495;SDS011;38806;51.554;5.704;2023-03-18T09:32:00;10.73;;;7.23;;
50495;SDS011;38806;51.554;5.704;2023-03-18T09:34:00;10.82;;;6.07;;
50495;SDS011;38806;51.554;5.704;2023-03-18T09:36:00;11.40;;;8.17;;
50495;SDS011;38806;51.554;5.704;2023-03-18T09:38:00;13.57;;;8.47;;
50495;SDS011;38806;51.554;5.704;2023-03-18T09:40:01;13.25;;;8.32;;
50495;SDS011;38806;51.554;5.704;2023-03-18T09:44:21;10.98;;;7.47;;
50495;SDS011;38806;51.554;5.704;2023-03-18T09:48:33;14.98;;;7.95;;
50495;SDS011;38806;51.554;5.704;2023-03-18T09:52:45;12.20;;;8.57;;
50495;SDS011;38806;51.554;5.704;2023-03-18T09:54:58;11.80;;;7.75;;
50495;SDS011;38806;51.554;5.704;2023-03-18T09:57:02;11.23;;;7.63;;
50495;SDS011;38806;51.554;5.704;2023-03-18T09:59:03;10.40;;;7.55;;
50495;SDS011;38806;51.554;5.704;2023-03-18T10:01:04;10.75;;;7.53;;
50495;SDS011;38806;51.554;5.704;2023-03-18T10:05:11;10.55;;;7.30;;
50495;SDS011;38806;51.554;5.704;2023-03-18T10:07:15;9.63;;;6.75;;
50495;SDS011;38806;51.554;5.704;2023-03-18T10:09:18;9.20;;;6.60;;
50495;SDS011;38806;51.554;5.704;2023-03-18T10:13:30;9.57;;;5.00;;
50495;SDS011;38806;51.554;5.704;2023-03-18T10:15:40;8.25;;;5.88;;
50495;SDS011;38806;51.554;5.704;2023-03-18T10:17:43;9.88;;;6.38;;
50495;SDS011;38806;51.554;5.704;2023-03-18T10:19:50;6.43;;;4.70;;
50495;SDS011;38806;51.554;5.704;2023-03-18T10:22:28;9.52;;;7.13;;
50495;SDS011;38806;51.554;5.704;2023-03-18T10:26:27;7.97;;;5.38;;
50495;SDS011;38806;51.554;5.704;2023-03-18T10:28:31;8.18;;;4.43;;
50495;SDS011;38806;51.554;5.704;2023-03-18T10:32:42;6.95;;;4.85;;
50495;SDS011;38806;51.554;5.704;2023-03-18T10:39:09;10.57;;;5.40;;
50495;SDS011;38806;51.554;5.704;2023-03-18T10:41:29;6.45;;;4.80;;
50495;SDS011;38806;51.554;5.704;2023-03-18T10:43:30;5.75;;;3.85;;
50495;SDS011;38806;51.554;5.704;2023-03-18T10:45:32;5.03;;;3.50;;
50495;SDS011;38806;51.554;5.704;2023-03-18T10:47:34;5.65;;;3.17;;
50495;SDS011;38806;51.554;5.704;2023-03-18T10:49:36;5.53;;;3.33;;
50495;SDS011;38806;51.554;5.704;2023-03-18T10:51:42;8.57;;;4.57;;
50495;SDS011;38806;51.554;5.704;2023-03-18T10:53:50;6.72;;;3.08;;
50495;SDS011;38806;51.554;5.704;2023-03-18T10:55:54;7.30;;;3.60;;
50495;SDS011;38806;51.554;5.704;2023-03-18T10:57:57;6.80;;;3.28;;
50495;SDS011;38806;51.554;5.704;2023-03-18T10:59:58;5.85;;;3.05;;
50495;SDS011;38806;51.554;5.704;2023-03-18T11:02:01;6.57;;;2.92;;
50495;SDS011;38806;51.554;5.704;2023-03-18T11:04:04;5.18;;;3.15;;
50495;SDS011;38806;51.554;5.704;2023-03-18T11:06:05;5.78;;;3.13;;
50495;SDS011;38806;51.554;5.704;2023-03-18T11:08:26;7.47;;;4.10;;
50495;SDS011;38806;51.554;5.704;2023-03-18T11:10:30;6.68;;;3.42;;
50495;SDS011;38806;51.554;5.704;2023-03-18T11:12:31;5.20;;;2.53;;
50495;SDS011;38806;51.554;5.704;2023-03-18T11:14:32;6.10;;;2.90;;
50495;SDS011;38806;51.554;5.704;2023-03-18T11:16:34;5.75;;;2.72;;
50495;SDS011;38806;51.554;5.704;2023-03-18T11:18:37;5.60;;;2.75;;
50495;SDS011;38806;51.554;5.704;2023-03-18T11:20:41;5.57;;;2.60;;
50495;SDS011;38806;51.554;5.704;2023-03-18T11:22:44;5.03;;;2.10;;
50495;SDS011;38806;51.554;5.704;2023-03-18T11:24:58;5.90;;;2.17;;
50495;SDS011;38806;51.554;5.704;2023-03-18T11:26:59;5.63;;;2.10;;
50495;SDS011;38806;51.554;5.704;2023-03-18T11:29:08;4.80;;;1.87;;
50495;SDS011;38806;51.554;5.704;2023-03-18T11:31:14;6.03;;;2.60;;
50495;SDS011;38806;51.554;5.704;2023-03-18T11:33:15;3.63;;;1.83;;
50495;SDS011;38806;51.554;5.704;2023-03-18T11:35:20;5.47;;;2.28;;
50495;SDS011;38806;51.554;5.704;2023-03-18T11:37:24;4.95;;;1.98;;
50495;SDS011;38806;51.554;5.704;2023-03-18T11:39:26;5.78;;;2.35;;
50495;SDS011;38806;51.554;5.704;2023-03-18T11:41:27;6.78;;;2.20;;
50495;SDS011;38806;51.554;5.704;2023-03-18T11:43:29;8.85;;;2.85;;
50495;SDS011;38806;51.554;5.704;2023-03-18T11:47:31;5.35;;;2.22;;
50495;SDS011;38806;51.554;5.704;2023-03-18T11:49:34;7.53;;;2.95;;
50495;SDS011;38806;51.554;5.704;2023-03-18T11:56:19;3.67;;;2.00;;
50495;SDS011;38806;51.554;5.704;2023-03-18T12:00:30;4.00;;;1.50;;
50495;SDS011;38806;51.554;5.704;2023-03-18T12:07:07;3.88;;;2.17;;
50495;SDS011;38806;51.554;5.704;2023-03-18T12:11:17;4.88;;;2.30;;
50495;SDS011;38806;51.554;5.704;2023-03-18T12:17:48;6.78;;;2.95;;
50495;SDS011;38806;51.554;5.704;2023-03-18T12:26:36;5.57;;;2.10;;
50495;SDS011;38806;51.554;5.704;2023-03-18T12:35:24;4.75;;;2.80;;
50495;SDS011;38806;51.554;5.704;2023-03-18T12:41:50;10.73;;;3.05;;
50495;SDS011;38806;51.554;5.704;2023-03-18T12:45:58;6.13;;;2.72;;
50495;SDS011;38806;51.554;5.704;2023-03-18T12:48:11;4.72;;;2.55;;
50495;SDS011;38806;51.554;5.704;2023-03-18T12:50:17;5.22;;;2.03;;
50495;SDS011;38806;51.554;5.704;2023-03-18T12:52:26;6.38;;;2.88;;
50495;SDS011;38806;51.554;5.704;2023-03-18T12:54:29;5.57;;;3.05;;
50495;SDS011;38806;51.554;5.704;2023-03-18T12:56:31;5.55;;;2.80;;
50495;SDS011;38806;51.554;5.704;2023-03-18T12:58:43;6.20;;;3.75;;
50495;SDS011;38806;51.554;5.704;2023-03-18T13:03:18;5.90;;;2.65;;
50495;SDS011;38806;51.554;5.704;2023-03-18T13:07:26;9.05;;;2.50;;